CYKD

Details ICAO CYKD (LAK)
Name AKLAVIK
Region Canada
Timezone America/Yellowknife (UTC-7.0)
Plans Departing 10
Arriving 16
Stats Elevation 23 ft / 7 m (AMSL)
Location 68.223300° -135.006000°
Runways 1
Magnetic Variation 20.846° E
Sunrise Unknown / Unknown
Sunset Unknown / Unknown
Advertisement - Login to hide

Runways

ID Width Length Bearing (true/mag) Surface Threshold Overrun Markings Lighting
13 75 ft / 23 m 2,963 ft / 903 m 152.83° / 131.99° GRAVEL 0 ft / 0 m 0 ft / 0 m VISUAL EDGE THRESHOLD REIL-OMNI
31 75 ft / 23 m 2,963 ft / 903 m 332.84° / 312.00° GRAVEL 0 ft / 0 m 0 ft / 0 m VISUAL EDGE THRESHOLD REIL-OMNI

Map

Weather


0- 5 10 15 20 25 30 35+ Temperature / °C

Clouds and Precipitation
Forecast for 2018-12-13 18:00 UTC. Updated 2 hours ago

Ground ~20,000 ft ~40,000 ft Winds

METAR

CYKD 131700Z 17003KT 15SM SCT027 M30/M33 A2960 RMK SC4 SLP027

TAF

Not found

Frequencies

Unicom 122.10 MHz CTAF
Warning: Do not use this data for real-world aviation or navigation. No guarantee of current accuracy is given.